createdAt,value
2023-01-25T00:01:07.916Z,94.56
2023-01-25T00:03:35.456Z,94.68
2023-01-25T00:06:02.751Z,94.84
2023-01-25T00:08:30.099Z,94.33
2023-01-25T00:10:58.576Z,94.76
2023-01-25T00:13:26.932Z,94.54
2023-01-25T00:15:54.144Z,94.54
2023-01-25T00:18:21.598Z,94.66
2023-01-25T00:20:48.723Z,95.16
2023-01-25T00:23:15.988Z,94.62
2023-01-25T00:25:43.429Z,94.02
2023-01-25T00:28:10.587Z,94.21
2023-01-25T00:30:37.740Z,94.14
2023-01-25T00:33:52.536Z,94.56
2023-01-25T00:36:33.537Z,94.52
2023-01-25T00:39:01.039Z,93.68
2023-01-25T00:41:28.261Z,93.30
2023-01-25T00:43:55.765Z,93.24
2023-01-25T00:46:23.420Z,93.77
2023-01-25T00:48:53.911Z,93.91
2023-01-25T00:51:21.967Z,94.51
2023-01-25T00:53:49.576Z,94.35
2023-01-25T00:56:17.098Z,94.93
2023-01-25T00:58:44.271Z,94.67
2023-01-25T01:01:12.357Z,94.83
2023-01-25T01:03:43.486Z,95.13
2023-01-25T01:06:12.522Z,95.67
2023-01-25T01:08:40.950Z,95.74
2023-01-25T01:11:12.778Z,94.57
2023-01-25T01:13:40.582Z,95.06
2023-01-25T01:16:11.331Z,95.44
2023-01-25T01:18:44.257Z,94.90
2023-01-25T01:21:12.860Z,94.14
2023-01-25T01:23:40.235Z,94.27
2023-01-25T01:26:10.627Z,95.05
2023-01-25T01:28:40.974Z,94.94
2023-01-25T01:31:20.623Z,94.36
2023-01-25T01:33:50.645Z,94.56
2023-01-25T01:36:19.215Z,94.30
2023-01-25T01:38:47.038Z,93.45
2023-01-25T01:41:15.664Z,93.78
2023-01-25T01:43:43.265Z,93.87
2023-01-25T01:46:10.613Z,94.06
2023-01-25T01:48:57.318Z,94.73
2023-01-25T01:51:24.701Z,94.65
2023-01-25T01:53:58.837Z,95.38
2023-01-25T01:56:47.039Z,95.13
2023-01-25T01:59:14.577Z,95.82
2023-01-25T02:01:41.998Z,95.99
2023-01-25T02:04:09.550Z,95.52
2023-01-25T02:06:44.719Z,95.38
2023-01-25T02:09:14.862Z,95.27
2023-01-25T02:11:42.107Z,95.21
2023-01-25T02:14:09.463Z,95.54
2023-01-25T02:16:37.009Z,95.31
2023-01-25T02:19:05.167Z,95.78
2023-01-25T02:21:40.008Z,95.44
2023-01-25T02:24:29.602Z,94.89
2023-01-25T02:26:57.208Z,95.21
2023-01-25T02:29:26.371Z,95.90
2023-01-25T02:32:02.941Z,94.99
2023-01-25T02:34:30.404Z,94.91
2023-01-25T02:36:57.949Z,95.97
2023-01-25T02:39:26.680Z,96.35
2023-01-25T02:41:54.231Z,95.52
2023-01-25T02:44:22.201Z,94.99
2023-01-25T02:46:49.393Z,95.02
2023-01-25T02:49:17.645Z,94.49
2023-01-25T02:51:47.597Z,94.57
2023-01-25T02:54:16.916Z,94.74
2023-01-25T02:56:44.452Z,94.77
2023-01-25T02:59:13.484Z,94.40
2023-01-25T03:01:43.597Z,94.78
2023-01-25T03:04:11.415Z,95.45
2023-01-25T03:06:38.850Z,95.16
2023-01-25T03:09:09.519Z,95.01
2023-01-25T03:11:38.140Z,94.31
2023-01-25T03:14:05.587Z,95.24
2023-01-25T03:16:33.846Z,94.95
2023-01-25T03:19:01.867Z,94.81
2023-01-25T03:21:29.303Z,94.15
2023-01-25T03:23:59.671Z,93.55
2023-01-25T03:26:29.618Z,94.29
2023-01-25T03:28:57.939Z,94.43
2023-01-25T03:31:25.273Z,95.10
2023-01-25T03:33:52.863Z,95.94
2023-01-25T03:36:21.718Z,96.10
2023-01-25T03:38:48.940Z,95.99
2023-01-25T03:41:16.401Z,96.03
2023-01-25T03:43:44.984Z,95.73
2023-01-25T03:46:16.622Z,95.83
2023-01-25T03:48:44.176Z,95.02
2023-01-25T03:51:11.503Z,94.64
2023-01-25T03:53:38.672Z,94.86
2023-01-25T03:56:09.031Z,94.91
2023-01-25T03:58:37.967Z,93.95
2023-01-25T04:01:07.136Z,94.36
2023-01-25T04:03:35.266Z,94.39
2023-01-25T04:06:02.870Z,94.73
2023-01-25T04:08:30.580Z,94.68
2023-01-25T04:11:05.483Z,94.43
2023-01-25T04:13:35.302Z,94.67
2023-01-25T04:16:07.433Z,94.79
2023-01-25T04:18:37.343Z,95.07
2023-01-25T04:21:04.921Z,95.19
2023-01-25T04:23:32.415Z,94.90
2023-01-25T04:26:06.027Z,95.38
2023-01-25T04:28:34.787Z,94.83
2023-01-25T04:31:03.661Z,94.56
2023-01-25T04:33:32.099Z,93.94
2023-01-25T04:36:00.044Z,93.83
2023-01-25T04:38:27.365Z,94.02
2023-01-25T04:40:54.687Z,93.79
2023-01-25T04:43:22.939Z,93.69
2023-01-25T04:45:51.395Z,93.97
2023-01-25T04:48:19.432Z,94.28
2023-01-25T04:50:47.113Z,94.41
2023-01-25T04:53:14.534Z,95.09
2023-01-25T04:55:47.815Z,95.29
2023-01-25T04:58:15.819Z,96.54
2023-01-25T05:00:43.541Z,95.87
2023-01-25T05:03:11.279Z,95.76
2023-01-25T05:05:38.775Z,94.87
2023-01-25T05:08:06.729Z,94.64
2023-01-25T05:10:34.695Z,94.17
2023-01-25T05:13:05.991Z,93.65
2023-01-25T05:15:33.362Z,93.90
2023-01-25T05:18:00.647Z,94.05
2023-01-25T05:20:28.459Z,94.06
2023-01-25T05:22:55.884Z,94.07
2023-01-25T05:25:41.906Z,94.38
2023-01-25T05:28:09.893Z,95.22
2023-01-25T05:30:38.615Z,95.19
2023-01-25T05:33:06.239Z,94.88
2023-01-25T05:35:33.697Z,94.86
2023-01-25T05:38:00.897Z,93.86
2023-01-25T05:40:28.387Z,93.83
2023-01-25T05:43:00.026Z,93.73
2023-01-25T05:45:30.088Z,93.20
2023-01-25T05:47:58.787Z,94.11
2023-01-25T05:50:27.070Z,94.12
2023-01-25T05:52:54.571Z,94.29
2023-01-25T05:55:22.191Z,93.94
2023-01-25T05:57:51.137Z,93.28
2023-01-25T06:00:18.721Z,93.43
2023-01-25T06:02:46.288Z,93.18
2023-01-25T06:05:14.360Z,93.45
2023-01-25T06:07:41.625Z,92.31
2023-01-25T06:10:09.683Z,91.84
2023-01-25T06:12:37.025Z,92.14
2023-01-25T06:15:04.577Z,93.06
2023-01-25T06:17:32.743Z,92.55
2023-01-25T06:20:00.177Z,93.23
2023-01-25T06:22:27.843Z,93.12
2023-01-25T06:24:55.275Z,93.20
2023-01-25T06:27:22.909Z,94.47
2023-01-25T06:29:50.468Z,93.19
2023-01-25T06:32:17.993Z,93.46
2023-01-25T06:34:46.392Z,93.05
2023-01-25T06:37:16.394Z,92.89
2023-01-25T06:39:43.872Z,93.35
2023-01-25T06:42:11.031Z,93.31
2023-01-25T06:44:38.261Z,94.09
2023-01-25T06:47:08.914Z,92.64
2023-01-25T06:49:36.093Z,90.37
2023-01-25T06:52:03.416Z,90.24
2023-01-25T06:54:30.873Z,90.45
2023-01-25T06:56:58.053Z,90.69
2023-01-25T06:59:25.599Z,90.85
2023-01-25T07:01:53.107Z,91.27
2023-01-25T07:04:20.358Z,92.01
2023-01-25T07:06:47.520Z,91.37
2023-01-25T07:09:23.712Z,91.64
2023-01-25T07:11:51.631Z,91.11
2023-01-25T07:14:19.206Z,91.31
2023-01-25T07:16:46.364Z,91.19
2023-01-25T07:19:13.671Z,91.60
2023-01-25T07:21:41.184Z,92.48
2023-01-25T07:24:08.369Z,92.31
2023-01-25T07:26:35.511Z,92.01
2023-01-25T07:29:02.941Z,90.97
2023-01-25T07:31:30.324Z,91.12
2023-01-25T07:33:58.509Z,91.08
2023-01-25T07:36:26.299Z,91.41
2023-01-25T07:38:57.688Z,91.27
2023-01-25T07:41:25.559Z,91.96
2023-01-25T07:43:53.311Z,90.34
2023-01-25T07:46:21.556Z,88.71
2023-01-25T07:48:50.566Z,86.37
2023-01-25T07:51:23.202Z,83.63
2023-01-25T07:54:00.452Z,83.26
2023-01-25T07:56:32.976Z,82.96
2023-01-25T07:59:02.888Z,82.78
2023-01-25T08:01:34.299Z,81.47
2023-01-25T08:04:03.372Z,83.38
2023-01-25T08:06:36.224Z,82.35
2023-01-25T08:09:06.992Z,81.31
2023-01-25T08:11:34.821Z,81.71
2023-01-25T08:14:03.181Z,79.67
2023-01-25T08:16:31.853Z,78.38
2023-01-25T08:19:01.036Z,77.87
2023-01-25T08:21:32.211Z,78.17
2023-01-25T08:24:01.100Z,77.30
2023-01-25T08:26:31.070Z,75.87
2023-01-25T08:28:58.498Z,77.16
2023-01-25T08:31:28.635Z,76.87
2023-01-25T08:33:56.486Z,81.13
2023-01-25T08:36:24.363Z,81.53
2023-01-25T08:39:06.652Z,79.85
2023-01-25T08:41:35.438Z,76.36
2023-01-25T08:44:03.197Z,76.62
2023-01-25T08:46:33.160Z,74.19
2023-01-25T08:49:01.986Z,75.08
2023-01-25T08:51:31.594Z,73.46
2023-01-25T08:54:03.819Z,77.14
2023-01-25T08:56:31.486Z,79.35
2023-01-25T08:58:58.560Z,79.50
2023-01-25T09:01:25.745Z,79.11
2023-01-25T09:03:54.334Z,77.37
2023-01-25T09:06:21.492Z,78.16
2023-01-25T09:08:48.632Z,73.56
2023-01-25T09:11:18.601Z,74.71
2023-01-25T09:13:46.292Z,75.36
2023-01-25T09:16:16.026Z,74.60
2023-01-25T09:18:44.647Z,72.07
2023-01-25T09:21:14.518Z,76.69
2023-01-25T09:23:50.985Z,79.26
2023-01-25T09:26:25.565Z,82.86
2023-01-25T09:28:54.563Z,82.71
2023-01-25T09:31:23.878Z,77.93
2023-01-25T09:33:52.829Z,76.36
2023-01-25T09:36:20.691Z,75.02
2023-01-25T09:38:48.597Z,76.14
2023-01-25T09:41:38.851Z,72.42
2023-01-25T09:44:28.362Z,78.14
2023-01-25T09:47:21.357Z,70.73
2023-01-25T09:50:10.873Z,77.29
2023-01-25T09:52:51.267Z,72.93
2023-01-25T09:55:21.199Z,79.01
2023-01-25T09:57:50.974Z,79.00
2023-01-25T10:00:21.564Z,77.00
2023-01-25T10:02:57.236Z,77.32
2023-01-25T10:05:28.451Z,76.75
2023-01-25T10:08:25.996Z,72.99
2023-01-25T10:11:02.384Z,74.64
2023-01-25T10:13:31.832Z,84.80
2023-01-25T10:16:09.929Z,79.17
2023-01-25T10:18:51.875Z,79.38
2023-01-25T10:21:32.684Z,74.16
2023-01-25T10:24:17.569Z,77.96
2023-01-25T10:26:50.514Z,76.64
2023-01-25T10:29:18.970Z,76.92
2023-01-25T10:31:53.374Z,79.71
2023-01-25T10:34:31.875Z,77.42
2023-01-25T10:37:23.377Z,75.01
2023-01-25T10:39:59.275Z,80.45
2023-01-25T10:42:27.775Z,74.21
2023-01-25T10:44:55.418Z,76.14
2023-01-25T10:47:28.063Z,84.81
2023-01-25T10:49:57.044Z,78.71
2023-01-25T10:52:27.938Z,77.61
2023-01-25T10:55:17.857Z,80.67
2023-01-25T10:57:50.499Z,80.42
2023-01-25T11:00:37.930Z,82.49
2023-01-25T11:03:06.107Z,89.08
2023-01-25T11:05:35.512Z,84.12
2023-01-25T11:08:26.776Z,86.17
2023-01-25T11:10:54.476Z,80.85
2023-01-25T11:13:29.511Z,79.58
2023-01-25T11:16:35.051Z,76.33
2023-01-25T11:19:03.922Z,79.73
2023-01-25T11:21:33.703Z,74.80
2023-01-25T11:24:07.249Z,80.00
2023-01-25T11:26:37.087Z,75.58
2023-01-25T11:29:22.590Z,71.83
2023-01-25T11:31:55.535Z,79.66
2023-01-25T11:34:25.947Z,71.53
2023-01-25T11:37:20.610Z,72.77
2023-01-25T11:39:55.815Z,73.10
2023-01-25T11:42:42.840Z,74.86
2023-01-25T11:45:29.601Z,71.66
2023-01-25T11:48:17.211Z,73.13
2023-01-25T11:51:14.083Z,76.08
2023-01-25T11:53:56.156Z,76.92
2023-01-25T11:56:23.174Z,77.22
2023-01-25T11:59:16.982Z,78.02
2023-01-25T12:02:23.696Z,78.32
2023-01-25T12:05:21.867Z,77.17
2023-01-25T12:08:01.449Z,76.34
2023-01-25T12:10:44.313Z,73.11
2023-01-25T12:13:20.566Z,74.74
2023-01-25T12:16:07.197Z,71.99
2023-01-25T12:18:44.689Z,74.75
2023-01-25T12:21:56.687Z,71.53
2023-01-25T12:24:49.953Z,77.46
2023-01-25T12:27:36.584Z,73.17
2023-01-25T12:30:27.211Z,73.44
2023-01-25T12:33:18.152Z,73.50
2023-01-25T12:36:11.926Z,72.37
2023-01-25T12:38:49.574Z,72.60
2023-01-25T12:41:52.022Z,72.56
2023-01-25T12:44:25.931Z,73.17
2023-01-25T12:47:02.270Z,75.18
2023-01-25T12:49:54.485Z,73.23
2023-01-25T12:52:28.144Z,75.17
2023-01-25T12:54:57.742Z,78.23
2023-01-25T12:57:28.657Z,80.57
2023-01-25T13:00:04.770Z,80.89
2023-01-25T13:03:11.110Z,80.51
2023-01-25T13:05:48.578Z,80.16
2023-01-25T13:08:31.873Z,79.98
2023-01-25T13:11:20.674Z,78.76
2023-01-25T13:13:48.014Z,79.36
2023-01-25T13:16:30.748Z,77.54
2023-01-25T13:18:58.635Z,76.02
2023-01-25T13:21:42.502Z,75.40
2023-01-25T13:24:13.974Z,73.81
2023-01-25T13:26:48.682Z,73.06
2023-01-25T13:29:40.347Z,73.38
2023-01-25T13:32:13.147Z,72.48
2023-01-25T13:34:44.254Z,72.05
2023-01-25T13:37:32.088Z,73.04
2023-01-25T13:40:06.458Z,71.88
2023-01-25T13:42:36.388Z,73.57
2023-01-25T13:45:20.629Z,73.53
2023-01-25T13:48:03.197Z,73.81
2023-01-25T13:50:34.296Z,73.78
2023-01-25T13:53:17.352Z,72.57
2023-01-25T13:55:55.029Z,72.86
2023-01-25T13:58:24.924Z,72.64
2023-01-25T14:00:57.876Z,74.07
2023-01-25T14:03:34.048Z,74.35
2023-01-25T14:06:06.070Z,72.50
2023-01-25T14:08:33.886Z,73.79
2023-01-25T14:11:01.137Z,68.37
2023-01-25T14:13:28.327Z,69.58
2023-01-25T14:16:05.284Z,70.13
2023-01-25T14:18:33.355Z,70.59
2023-01-25T14:21:18.262Z,72.38
2023-01-25T14:23:45.444Z,70.69
2023-01-25T14:26:25.006Z,71.41
2023-01-25T14:29:01.407Z,72.48
2023-01-25T14:31:35.709Z,73.41
2023-01-25T14:34:04.974Z,72.40
2023-01-25T14:36:36.991Z,72.33
2023-01-25T14:39:15.081Z,74.36
2023-01-25T14:41:59.900Z,72.90
2023-01-25T14:44:29.039Z,73.30
2023-01-25T14:47:22.786Z,73.73
2023-01-25T14:49:50.191Z,72.87
2023-01-25T14:52:20.679Z,73.60
2023-01-25T14:54:53.283Z,71.67
2023-01-25T14:57:29.447Z,71.23
2023-01-25T14:59:57.261Z,72.27
2023-01-25T15:02:46.499Z,71.87
2023-01-25T15:05:22.010Z,70.75
2023-01-25T15:07:54.763Z,70.31
2023-01-25T15:10:27.703Z,70.42
2023-01-25T15:13:14.197Z,68.04
2023-01-25T15:16:02.928Z,68.78
2023-01-25T15:18:54.966Z,71.09
2023-01-25T15:21:32.200Z,72.98
2023-01-25T15:24:04.794Z,71.67
2023-01-25T15:26:33.753Z,70.35
2023-01-25T15:29:05.084Z,71.92
2023-01-25T15:31:34.280Z,71.83
2023-01-25T15:34:02.180Z,70.42
2023-01-25T15:36:30.663Z,70.62
2023-01-25T15:38:57.891Z,71.12
2023-01-25T15:41:25.395Z,70.69
2023-01-25T15:43:52.589Z,71.13
2023-01-25T15:46:22.821Z,69.16
2023-01-25T15:48:51.438Z,69.65
2023-01-25T15:51:18.976Z,70.06
2023-01-25T15:53:47.040Z,70.73
2023-01-25T15:56:22.421Z,71.28
2023-01-25T15:58:52.692Z,70.73
2023-01-25T16:01:21.270Z,71.36
2023-01-25T16:03:48.742Z,73.22
2023-01-25T16:06:31.264Z,75.05
2023-01-25T16:09:00.634Z,74.75
2023-01-25T16:11:27.882Z,74.88
2023-01-25T16:13:55.156Z,75.84
2023-01-25T16:16:24.530Z,76.11
2023-01-25T16:18:51.787Z,75.54
2023-01-25T16:21:18.997Z,76.39
2023-01-25T16:23:46.540Z,77.76
2023-01-25T16:26:24.861Z,78.00
2023-01-25T16:28:52.381Z,78.66
2023-01-25T16:31:31.821Z,80.15
2023-01-25T16:34:00.909Z,80.82
2023-01-25T16:36:28.643Z,80.99
2023-01-25T16:38:56.035Z,80.93
2023-01-25T16:41:23.532Z,80.62
2023-01-25T16:43:53.522Z,80.54
2023-01-25T16:46:23.562Z,81.45
2023-01-25T16:48:52.466Z,81.95
2023-01-25T16:51:22.936Z,80.90
2023-01-25T16:53:51.999Z,80.71
2023-01-25T16:56:31.043Z,80.25
2023-01-25T16:59:01.542Z,81.23
2023-01-25T17:01:28.682Z,80.95
2023-01-25T17:03:56.151Z,82.21
2023-01-25T17:06:28.882Z,81.27
2023-01-25T17:08:58.900Z,81.49
2023-01-25T17:11:26.452Z,81.82
2023-01-25T17:13:56.234Z,82.29
2023-01-25T17:16:26.323Z,82.98
2023-01-25T17:18:58.752Z,83.59
2023-01-25T17:21:26.629Z,84.71
2023-01-25T17:23:55.490Z,84.97
2023-01-25T17:26:23.672Z,86.07
2023-01-25T17:28:51.505Z,86.20
2023-01-25T17:31:24.275Z,87.18
2023-01-25T17:33:52.046Z,87.13
2023-01-25T17:36:19.924Z,86.72
2023-01-25T17:38:47.492Z,86.97
2023-01-25T17:41:16.441Z,87.45
2023-01-25T17:43:44.212Z,87.08
2023-01-25T17:46:29.607Z,87.85
2023-01-25T17:48:58.052Z,88.02
2023-01-25T17:51:26.267Z,88.03
2023-01-25T17:53:53.703Z,87.84
2023-01-25T17:56:21.294Z,87.84
2023-01-25T17:58:48.471Z,87.66
2023-01-25T18:01:23.814Z,88.00
2023-01-25T18:03:53.433Z,87.47
2023-01-25T18:06:24.927Z,88.26
2023-01-25T18:08:54.683Z,87.98
2023-01-25T18:11:24.837Z,88.08
2023-01-25T18:13:54.644Z,88.37
2023-01-25T18:16:23.215Z,88.42
2023-01-25T18:18:52.329Z,88.52
2023-01-25T18:21:26.392Z,88.31
2023-01-25T18:24:33.207Z,88.85
2023-01-25T18:27:20.255Z,88.86
2023-01-25T18:29:54.404Z,88.36
2023-01-25T18:32:22.170Z,88.42
2023-01-25T18:34:49.708Z,88.14
2023-01-25T18:37:29.496Z,88.29
2023-01-25T18:39:57.189Z,89.05
2023-01-25T18:42:26.269Z,89.05
2023-01-25T18:44:53.862Z,88.30
2023-01-25T18:47:22.634Z,88.08
2023-01-25T18:49:51.533Z,87.67
2023-01-25T18:52:20.394Z,88.08
2023-01-25T18:54:47.865Z,88.43
2023-01-25T18:57:15.569Z,88.50
2023-01-25T18:59:44.281Z,88.28
2023-01-25T19:02:13.323Z,88.85
2023-01-25T19:04:41.153Z,88.22
2023-01-25T19:07:08.673Z,87.03
2023-01-25T19:09:36.129Z,87.44
2023-01-25T19:12:03.735Z,87.99
2023-01-25T19:14:30.945Z,88.21
2023-01-25T19:16:58.371Z,88.53
2023-01-25T19:19:31.747Z,88.97
2023-01-25T19:21:59.965Z,88.56
2023-01-25T19:24:27.485Z,88.28
2023-01-25T19:26:56.960Z,87.70
2023-01-25T19:29:24.425Z,88.08
2023-01-25T19:31:51.726Z,88.54
2023-01-25T19:34:18.928Z,88.29
2023-01-25T19:36:50.159Z,89.03
2023-01-25T19:39:17.961Z,89.67
2023-01-25T19:41:48.305Z,89.79
2023-01-25T19:44:18.314Z,89.53
2023-01-25T19:46:45.501Z,89.53
2023-01-25T19:49:16.227Z,90.00
2023-01-25T19:51:47.888Z,89.98
2023-01-25T19:54:18.559Z,89.52
2023-01-25T19:56:48.496Z,89.46
2023-01-25T19:59:21.142Z,89.87
2023-01-25T20:01:48.967Z,90.01
2023-01-25T20:04:19.818Z,89.64
2023-01-25T20:06:48.901Z,89.88
2023-01-25T20:09:18.434Z,90.07
2023-01-25T20:11:47.333Z,89.76
2023-01-25T20:14:14.855Z,90.15
2023-01-25T20:16:42.935Z,90.48
2023-01-25T20:19:13.222Z,90.11
2023-01-25T20:21:40.413Z,90.54
2023-01-25T20:24:10.960Z,90.21
2023-01-25T20:26:39.668Z,90.29
2023-01-25T20:29:07.568Z,90.44
2023-01-25T20:31:37.073Z,90.47
2023-01-25T20:34:07.386Z,90.10
2023-01-25T20:36:35.820Z,90.24
2023-01-25T20:39:03.796Z,90.45
2023-01-25T20:41:31.190Z,90.48
2023-01-25T20:44:07.142Z,90.65
2023-01-25T20:46:37.334Z,90.37
2023-01-25T20:49:18.079Z,91.04
2023-01-25T20:51:46.553Z,91.04
2023-01-25T20:54:14.279Z,90.90
2023-01-25T20:56:42.919Z,91.24
2023-01-25T20:59:10.379Z,91.09
2023-01-25T21:01:38.042Z,90.94
2023-01-25T21:04:07.415Z,91.19
2023-01-25T21:06:40.815Z,91.07
2023-01-25T21:09:07.916Z,90.90
2023-01-25T21:11:35.397Z,90.73
2023-01-25T21:14:02.788Z,90.78
2023-01-25T21:16:30.219Z,90.70
2023-01-25T21:19:00.102Z,90.60
2023-01-25T21:21:31.967Z,90.68
2023-01-25T21:24:02.418Z,90.87
2023-01-25T21:26:34.386Z,90.90
2023-01-25T21:29:02.509Z,90.70
2023-01-25T21:31:42.346Z,90.81
2023-01-25T21:34:10.244Z,91.01
2023-01-25T21:36:40.236Z,91.58
2023-01-25T21:39:07.451Z,91.56
2023-01-25T21:41:36.046Z,91.61
2023-01-25T21:44:22.470Z,91.31
2023-01-25T21:47:16.415Z,91.51
2023-01-25T21:49:55.775Z,91.44
2023-01-25T21:52:23.196Z,91.66
2023-01-25T21:54:50.280Z,91.57
2023-01-25T21:57:17.426Z,91.71
2023-01-25T21:59:44.846Z,91.46
2023-01-25T22:02:14.527Z,91.49
2023-01-25T22:04:42.011Z,91.63
2023-01-25T22:07:09.819Z,91.85
2023-01-25T22:09:36.956Z,91.88
2023-01-25T22:12:04.577Z,91.37
2023-01-25T22:14:31.726Z,91.47
2023-01-25T22:16:58.913Z,91.26
2023-01-25T22:19:26.402Z,91.43
2023-01-25T22:21:53.537Z,91.04
2023-01-25T22:24:20.927Z,91.30
2023-01-25T22:26:51.726Z,91.06
2023-01-25T22:29:18.806Z,90.91
2023-01-25T22:31:45.884Z,91.13
2023-01-25T22:34:13.356Z,91.12
2023-01-25T22:36:40.456Z,91.35
2023-01-25T22:39:07.705Z,90.87
2023-01-25T22:41:37.453Z,90.94
2023-01-25T22:44:04.906Z,90.92
2023-01-25T22:46:32.019Z,90.85
2023-01-25T22:48:59.544Z,91.82
2023-01-25T22:51:28.747Z,92.23
2023-01-25T22:53:57.040Z,91.88
2023-01-25T22:56:32.012Z,91.52
2023-01-25T22:58:59.958Z,91.70
2023-01-25T23:01:32.349Z,91.93
2023-01-25T23:04:00.455Z,92.04
2023-01-25T23:06:29.903Z,91.45
2023-01-25T23:08:59.909Z,91.24
2023-01-25T23:11:32.345Z,91.08
2023-01-25T23:14:18.795Z,91.26
2023-01-25T23:16:47.225Z,91.25
2023-01-25T23:19:14.549Z,91.68
2023-01-25T23:21:42.318Z,92.53
2023-01-25T23:24:10.096Z,92.81
2023-01-25T23:26:46.243Z,92.42
2023-01-25T23:29:14.487Z,92.28
2023-01-25T23:31:41.784Z,92.27
2023-01-25T23:34:11.315Z,92.96
2023-01-25T23:36:39.621Z,93.14
2023-01-25T23:39:06.868Z,92.55
2023-01-25T23:41:34.139Z,92.59
2023-01-25T23:44:01.971Z,92.67
2023-01-25T23:46:29.278Z,92.32
2023-01-25T23:48:56.416Z,92.31
2023-01-25T23:51:23.810Z,92.41
2023-01-25T23:53:53.375Z,92.30
2023-01-25T23:56:21.909Z,92.42
